sensor_id;sensor_type;location;lat;lon;timestamp;temperature;humidity
32614;DHT22;19031;51.400;6.770;2023-08-06T00:02:18;16.00;99.90
32614;DHT22;19031;51.400;6.770;2023-08-06T00:04:44;16.00;99.90
32614;DHT22;19031;51.400;6.770;2023-08-06T00:07:09;16.00;99.90
32614;DHT22;19031;51.400;6.770;2023-08-06T00:09:35;16.00;99.90
32614;DHT22;19031;51.400;6.770;2023-08-06T00:12:00;15.90;99.90
32614;DHT22;19031;51.400;6.770;2023-08-06T00:14:26;16.00;99.90
32614;DHT22;19031;51.400;6.770;2023-08-06T00:16:52;16.00;99.90
32614;DHT22;19031;51.400;6.770;2023-08-06T00:19:17;16.00;99.90
32614;DHT22;19031;51.400;6.770;2023-08-06T00:21:43;15.90;99.90
32614;DHT22;19031;51.400;6.770;2023-08-06T00:24:08;15.90;99.90
32614;DHT22;19031;51.400;6.770;2023-08-06T00:26:34;15.90;99.90
32614;DHT22;19031;51.400;6.770;2023-08-06T00:29:00;15.90;99.90
32614;DHT22;19031;51.400;6.770;2023-08-06T00:31:25;15.90;99.90
32614;DHT22;19031;51.400;6.770;2023-08-06T00:33:51;15.90;99.90
32614;DHT22;19031;51.400;6.770;2023-08-06T00:36:16;15.90;99.90
32614;DHT22;19031;51.400;6.770;2023-08-06T00:38:42;15.90;99.90
32614;DHT22;19031;51.400;6.770;2023-08-06T00:41:07;15.80;99.90
32614;DHT22;19031;51.400;6.770;2023-08-06T00:43:33;15.80;99.90
32614;DHT22;19031;51.400;6.770;2023-08-06T00:45:58;15.80;99.90
32614;DHT22;19031;51.400;6.770;2023-08-06T00:48:24;15.80;99.90
32614;DHT22;19031;51.400;6.770;2023-08-06T00:50:50;15.80;99.90
32614;DHT22;19031;51.400;6.770;2023-08-06T00:53:16;15.70;99.90
32614;DHT22;19031;51.400;6.770;2023-08-06T00:55:44;15.70;99.90
32614;DHT22;19031;51.400;6.770;2023-08-06T00:58:11;15.70;99.90
32614;DHT22;19031;51.400;6.770;2023-08-06T01:00:38;15.70;99.90
32614;DHT22;19031;51.400;6.770;2023-08-06T01:03:04;15.70;99.90
32614;DHT22;19031;51.400;6.770;2023-08-06T01:05:29;15.70;99.90
32614;DHT22;19031;51.400;6.770;2023-08-06T01:11:21;15.80;99.90
32614;DHT22;19031;51.400;6.770;2023-08-06T01:14:02;15.70;99.90
32614;DHT22;19031;51.400;6.770;2023-08-06T01:16:28;15.80;99.90
32614;DHT22;19031;51.400;6.770;2023-08-06T01:18:58;15.80;99.90
32614;DHT22;19031;51.400;6.770;2023-08-06T01:21:24;15.80;99.90
32614;DHT22;19031;51.400;6.770;2023-08-06T01:23:49;15.70;99.90
32614;DHT22;19031;51.400;6.770;2023-08-06T01:26:32;15.70;99.90
32614;DHT22;19031;51.400;6.770;2023-08-06T01:31:35;15.80;99.90
32614;DHT22;19031;51.400;6.770;2023-08-06T01:34:03;15.80;99.90
32614;DHT22;19031;51.400;6.770;2023-08-06T01:36:30;15.80;99.90
32614;DHT22;19031;51.400;6.770;2023-08-06T01:38:56;15.80;99.90
32614;DHT22;19031;51.400;6.770;2023-08-06T01:41:23;15.90;99.90
32614;DHT22;19031;51.400;6.770;2023-08-06T01:43:48;15.90;99.90
32614;DHT22;19031;51.400;6.770;2023-08-06T01:46:14;15.90;99.90
32614;DHT22;19031;51.400;6.770;2023-08-06T01:48:39;15.90;99.90
32614;DHT22;19031;51.400;6.770;2023-08-06T01:51:05;15.90;99.90
32614;DHT22;19031;51.400;6.770;2023-08-06T01:53:31;15.80;99.90
32614;DHT22;19031;51.400;6.770;2023-08-06T01:55:57;15.90;99.90
32614;DHT22;19031;51.400;6.770;2023-08-06T01:58:23;15.80;99.90
32614;DHT22;19031;51.400;6.770;2023-08-06T02:00:48;15.80;99.90
32614;DHT22;19031;51.400;6.770;2023-08-06T02:03:14;16.00;99.90
32614;DHT22;19031;51.400;6.770;2023-08-06T02:05:40;16.00;99.90
32614;DHT22;19031;51.400;6.770;2023-08-06T02:08:08;15.90;99.90
32614;DHT22;19031;51.400;6.770;2023-08-06T02:10:34;15.90;99.90
32614;DHT22;19031;51.400;6.770;2023-08-06T02:13:00;16.00;99.90
32614;DHT22;19031;51.400;6.770;2023-08-06T02:15:25;16.00;99.90
32614;DHT22;19031;51.400;6.770;2023-08-06T02:17:51;16.00;99.90
32614;DHT22;19031;51.400;6.770;2023-08-06T02:20:17;15.90;99.90
32614;DHT22;19031;51.400;6.770;2023-08-06T02:22:42;15.90;99.90
32614;DHT22;19031;51.400;6.770;2023-08-06T02:25:08;15.90;99.90
32614;DHT22;19031;51.400;6.770;2023-08-06T02:27:33;15.90;99.90
32614;DHT22;19031;51.400;6.770;2023-08-06T02:29:59;15.90;99.90
32614;DHT22;19031;51.400;6.770;2023-08-06T02:32:25;15.80;99.90
32614;DHT22;19031;51.400;6.770;2023-08-06T02:34:50;15.80;99.90
32614;DHT22;19031;51.400;6.770;2023-08-06T02:37:16;15.90;99.90
32614;DHT22;19031;51.400;6.770;2023-08-06T02:39:41;15.80;99.90
32614;DHT22;19031;51.400;6.770;2023-08-06T02:42:07;15.80;99.90
32614;DHT22;19031;51.400;6.770;2023-08-06T02:44:33;15.80;99.90
32614;DHT22;19031;51.400;6.770;2023-08-06T02:46:59;15.70;99.90
32614;DHT22;19031;51.400;6.770;2023-08-06T02:49:25;15.90;99.90
32614;DHT22;19031;51.400;6.770;2023-08-06T02:51:50;15.80;99.90
32614;DHT22;19031;51.400;6.770;2023-08-06T02:54:16;15.80;99.90
32614;DHT22;19031;51.400;6.770;2023-08-06T02:56:45;15.80;99.90
32614;DHT22;19031;51.400;6.770;2023-08-06T02:59:12;15.80;99.90
32614;DHT22;19031;51.400;6.770;2023-08-06T03:01:37;15.80;99.90
32614;DHT22;19031;51.400;6.770;2023-08-06T03:04:03;15.80;99.90
32614;DHT22;19031;51.400;6.770;2023-08-06T03:06:29;15.70;99.90
32614;DHT22;19031;51.400;6.770;2023-08-06T03:08:54;15.70;99.90
32614;DHT22;19031;51.400;6.770;2023-08-06T03:11:20;15.80;99.90
32614;DHT22;19031;51.400;6.770;2023-08-06T03:13:49;15.70;99.90
32614;DHT22;19031;51.400;6.770;2023-08-06T03:16:15;15.70;99.90
32614;DHT22;19031;51.400;6.770;2023-08-06T03:18:40;15.70;99.90
32614;DHT22;19031;51.400;6.770;2023-08-06T03:21:06;15.70;99.90
32614;DHT22;19031;51.400;6.770;2023-08-06T03:23:33;15.70;99.90
32614;DHT22;19031;51.400;6.770;2023-08-06T03:26:02;15.70;99.90
32614;DHT22;19031;51.400;6.770;2023-08-06T03:28:28;15.70;99.90
32614;DHT22;19031;51.400;6.770;2023-08-06T03:31:00;15.70;99.90
32614;DHT22;19031;51.400;6.770;2023-08-06T03:33:26;15.70;99.90
32614;DHT22;19031;51.400;6.770;2023-08-06T03:35:52;15.80;99.90
32614;DHT22;19031;51.400;6.770;2023-08-06T03:38:17;15.80;99.90
32614;DHT22;19031;51.400;6.770;2023-08-06T03:40:43;15.80;99.90
32614;DHT22;19031;51.400;6.770;2023-08-06T03:43:08;15.70;99.90
32614;DHT22;19031;51.400;6.770;2023-08-06T03:45:34;15.70;99.90
32614;DHT22;19031;51.400;6.770;2023-08-06T03:48:00;15.70;99.90
32614;DHT22;19031;51.400;6.770;2023-08-06T03:50:25;15.80;99.90
32614;DHT22;19031;51.400;6.770;2023-08-06T03:52:51;15.70;99.90
32614;DHT22;19031;51.400;6.770;2023-08-06T03:55:16;15.80;99.90
32614;DHT22;19031;51.400;6.770;2023-08-06T03:57:42;15.80;99.90
32614;DHT22;19031;51.400;6.770;2023-08-06T04:00:08;15.80;99.90
32614;DHT22;19031;51.400;6.770;2023-08-06T04:02:33;15.80;99.90
32614;DHT22;19031;51.400;6.770;2023-08-06T04:05:00;15.70;99.90
32614;DHT22;19031;51.400;6.770;2023-08-06T04:07:25;15.70;99.90
32614;DHT22;19031;51.400;6.770;2023-08-06T04:09:58;15.80;99.90
32614;DHT22;19031;51.400;6.770;2023-08-06T04:12:24;15.80;99.90
32614;DHT22;19031;51.400;6.770;2023-08-06T04:14:51;15.70;99.90
32614;DHT22;19031;51.400;6.770;2023-08-06T04:17:21;15.70;99.90
32614;DHT22;19031;51.400;6.770;2023-08-06T04:19:55;15.70;99.90
32614;DHT22;19031;51.400;6.770;2023-08-06T04:22:24;15.70;99.90
32614;DHT22;19031;51.400;6.770;2023-08-06T04:24:49;15.70;99.90
32614;DHT22;19031;51.400;6.770;2023-08-06T04:27:16;15.60;99.90
32614;DHT22;19031;51.400;6.770;2023-08-06T04:29:42;15.80;99.90
32614;DHT22;19031;51.400;6.770;2023-08-06T04:32:09;15.80;99.90
32614;DHT22;19031;51.400;6.770;2023-08-06T04:34:35;15.80;99.90
32614;DHT22;19031;51.400;6.770;2023-08-06T04:37:02;15.80;99.90
32614;DHT22;19031;51.400;6.770;2023-08-06T04:39:28;15.80;99.90
32614;DHT22;19031;51.400;6.770;2023-08-06T04:41:53;15.80;99.90
32614;DHT22;19031;51.400;6.770;2023-08-06T04:44:19;15.90;99.90
32614;DHT22;19031;51.400;6.770;2023-08-06T04:46:45;16.00;99.90
32614;DHT22;19031;51.400;6.770;2023-08-06T04:49:11;16.10;99.90
32614;DHT22;19031;51.400;6.770;2023-08-06T04:51:36;16.00;99.90
32614;DHT22;19031;51.400;6.770;2023-08-06T04:54:02;16.00;99.90
32614;DHT22;19031;51.400;6.770;2023-08-06T04:56:28;16.00;99.90
32614;DHT22;19031;51.400;6.770;2023-08-06T04:58:53;16.10;99.90
32614;DHT22;19031;51.400;6.770;2023-08-06T05:01:19;16.10;99.90
32614;DHT22;19031;51.400;6.770;2023-08-06T05:03:44;16.10;99.90
32614;DHT22;19031;51.400;6.770;2023-08-06T05:06:10;16.10;99.90
32614;DHT22;19031;51.400;6.770;2023-08-06T05:08:36;16.10;99.90
32614;DHT22;19031;51.400;6.770;2023-08-06T05:11:01;16.10;99.90
32614;DHT22;19031;51.400;6.770;2023-08-06T05:13:27;16.10;99.90
32614;DHT22;19031;51.400;6.770;2023-08-06T05:15:56;16.20;99.90
32614;DHT22;19031;51.400;6.770;2023-08-06T05:18:22;16.20;99.90
32614;DHT22;19031;51.400;6.770;2023-08-06T05:20:47;16.30;99.90
32614;DHT22;19031;51.400;6.770;2023-08-06T05:23:13;16.30;99.90
32614;DHT22;19031;51.400;6.770;2023-08-06T05:25:39;16.30;99.90
32614;DHT22;19031;51.400;6.770;2023-08-06T05:28:04;16.30;99.90
32614;DHT22;19031;51.400;6.770;2023-08-06T05:30:30;16.40;99.90
32614;DHT22;19031;51.400;6.770;2023-08-06T05:32:55;16.50;99.90
32614;DHT22;19031;51.400;6.770;2023-08-06T05:35:21;16.50;99.90
32614;DHT22;19031;51.400;6.770;2023-08-06T05:37:48;16.50;99.90
32614;DHT22;19031;51.400;6.770;2023-08-06T05:40:13;16.70;99.90
32614;DHT22;19031;51.400;6.770;2023-08-06T05:42:40;16.70;99.90
32614;DHT22;19031;51.400;6.770;2023-08-06T05:45:06;16.70;99.90
32614;DHT22;19031;51.400;6.770;2023-08-06T05:47:32;16.70;99.90
32614;DHT22;19031;51.400;6.770;2023-08-06T05:49:57;16.70;99.90
32614;DHT22;19031;51.400;6.770;2023-08-06T05:52:23;16.70;99.90
32614;DHT22;19031;51.400;6.770;2023-08-06T05:54:49;16.60;99.90
32614;DHT22;19031;51.400;6.770;2023-08-06T05:57:14;16.70;99.90
32614;DHT22;19031;51.400;6.770;2023-08-06T05:59:41;16.70;99.90
32614;DHT22;19031;51.400;6.770;2023-08-06T06:02:06;16.60;99.90
32614;DHT22;19031;51.400;6.770;2023-08-06T06:04:32;16.60;99.90
32614;DHT22;19031;51.400;6.770;2023-08-06T06:06:57;16.60;99.90
32614;DHT22;19031;51.400;6.770;2023-08-06T06:09:23;16.70;99.90
32614;DHT22;19031;51.400;6.770;2023-08-06T06:11:48;16.70;99.90
32614;DHT22;19031;51.400;6.770;2023-08-06T06:14:16;16.80;99.90
32614;DHT22;19031;51.400;6.770;2023-08-06T06:16:41;16.90;99.90
32614;DHT22;19031;51.400;6.770;2023-08-06T06:19:07;17.00;99.90
32614;DHT22;19031;51.400;6.770;2023-08-06T06:21:32;17.00;99.90
32614;DHT22;19031;51.400;6.770;2023-08-06T06:23:58;17.20;99.90
32614;DHT22;19031;51.400;6.770;2023-08-06T06:26:24;17.30;99.90
32614;DHT22;19031;51.400;6.770;2023-08-06T06:28:50;17.40;99.90
32614;DHT22;19031;51.400;6.770;2023-08-06T06:31:18;17.40;99.90
32614;DHT22;19031;51.400;6.770;2023-08-06T06:33:44;17.50;99.90
32614;DHT22;19031;51.400;6.770;2023-08-06T06:36:09;17.50;99.90
32614;DHT22;19031;51.400;6.770;2023-08-06T06:38:35;17.60;99.90
32614;DHT22;19031;51.400;6.770;2023-08-06T06:41:07;17.70;99.90
32614;DHT22;19031;51.400;6.770;2023-08-06T06:43:33;17.70;99.90
32614;DHT22;19031;51.400;6.770;2023-08-06T06:45:59;17.70;99.90
32614;DHT22;19031;51.400;6.770;2023-08-06T06:48:29;17.70;99.90
32614;DHT22;19031;51.400;6.770;2023-08-06T06:50:55;17.80;99.90
32614;DHT22;19031;51.400;6.770;2023-08-06T06:53:21;17.90;99.90
32614;DHT22;19031;51.400;6.770;2023-08-06T06:55:56;18.10;99.90
32614;DHT22;19031;51.400;6.770;2023-08-06T06:58:22;18.10;99.90
32614;DHT22;19031;51.400;6.770;2023-08-06T07:00:48;18.30;99.90
32614;DHT22;19031;51.400;6.770;2023-08-06T07:03:17;18.40;99.90
32614;DHT22;19031;51.400;6.770;2023-08-06T07:05:44;18.60;99.90
32614;DHT22;19031;51.400;6.770;2023-08-06T07:08:10;18.80;99.90
32614;DHT22;19031;51.400;6.770;2023-08-06T07:10:40;19.00;99.90
32614;DHT22;19031;51.400;6.770;2023-08-06T07:13:09;19.30;99.90
32614;DHT22;19031;51.400;6.770;2023-08-06T07:15:35;19.60;99.90
32614;DHT22;19031;51.400;6.770;2023-08-06T07:18:03;19.80;99.90
32614;DHT22;19031;51.400;6.770;2023-08-06T07:20:29;20.00;99.90
32614;DHT22;19031;51.400;6.770;2023-08-06T07:22:58;20.20;99.90
32614;DHT22;19031;51.400;6.770;2023-08-06T07:25:24;20.40;99.90
32614;DHT22;19031;51.400;6.770;2023-08-06T07:27:49;20.60;99.90
32614;DHT22;19031;51.400;6.770;2023-08-06T07:30:15;20.70;99.90
32614;DHT22;19031;51.400;6.770;2023-08-06T07:32:43;20.90;99.90
32614;DHT22;19031;51.400;6.770;2023-08-06T07:35:08;21.10;99.90
32614;DHT22;19031;51.400;6.770;2023-08-06T07:37:40;21.40;99.90
32614;DHT22;19031;51.400;6.770;2023-08-06T07:40:06;21.40;99.90
32614;DHT22;19031;51.400;6.770;2023-08-06T07:42:32;21.50;99.90
32614;DHT22;19031;51.400;6.770;2023-08-06T07:44:58;21.60;99.90
32614;DHT22;19031;51.400;6.770;2023-08-06T07:47:24;21.70;99.90
32614;DHT22;19031;51.400;6.770;2023-08-06T07:49:50;21.60;99.90
32614;DHT22;19031;51.400;6.770;2023-08-06T07:52:18;21.50;99.90
32614;DHT22;19031;51.400;6.770;2023-08-06T07:54:44;21.30;99.90
32614;DHT22;19031;51.400;6.770;2023-08-06T07:57:09;21.30;99.90
32614;DHT22;19031;51.400;6.770;2023-08-06T07:59:38;21.20;99.90
32614;DHT22;19031;51.400;6.770;2023-08-06T08:02:04;21.10;99.90
32614;DHT22;19031;51.400;6.770;2023-08-06T08:04:30;21.10;99.90
32614;DHT22;19031;51.400;6.770;2023-08-06T08:06:56;21.10;99.90
32614;DHT22;19031;51.400;6.770;2023-08-06T08:09:22;20.90;99.90
32614;DHT22;19031;51.400;6.770;2023-08-06T08:11:47;21.00;99.90
32614;DHT22;19031;51.400;6.770;2023-08-06T08:14:13;21.10;99.90
32614;DHT22;19031;51.400;6.770;2023-08-06T08:16:38;21.10;99.90
32614;DHT22;19031;51.400;6.770;2023-08-06T08:19:13;21.10;99.90
32614;DHT22;19031;51.400;6.770;2023-08-06T08:21:38;21.20;99.90
32614;DHT22;19031;51.400;6.770;2023-08-06T08:24:04;20.90;99.90
32614;DHT22;19031;51.400;6.770;2023-08-06T08:26:30;21.00;99.90
32614;DHT22;19031;51.400;6.770;2023-08-06T08:28:56;20.90;99.90
32614;DHT22;19031;51.400;6.770;2023-08-06T08:31:22;20.50;99.90
32614;DHT22;19031;51.400;6.770;2023-08-06T08:33:48;20.30;99.90
32614;DHT22;19031;51.400;6.770;2023-08-06T08:36:13;20.30;99.90
32614;DHT22;19031;51.400;6.770;2023-08-06T08:38:42;20.30;99.90
32614;DHT22;19031;51.400;6.770;2023-08-06T08:41:09;20.30;99.90
32614;DHT22;19031;51.400;6.770;2023-08-06T08:43:35;20.30;99.90
32614;DHT22;19031;51.400;6.770;2023-08-06T08:46:09;20.30;99.90
32614;DHT22;19031;51.400;6.770;2023-08-06T08:48:35;20.40;99.90
32614;DHT22;19031;51.400;6.770;2023-08-06T08:51:01;20.40;99.90
32614;DHT22;19031;51.400;6.770;2023-08-06T08:53:27;20.30;99.90
32614;DHT22;19031;51.400;6.770;2023-08-06T08:55:57;20.40;99.90
32614;DHT22;19031;51.400;6.770;2023-08-06T08:58:26;20.50;99.90
32614;DHT22;19031;51.400;6.770;2023-08-06T09:00:51;20.40;99.90
32614;DHT22;19031;51.400;6.770;2023-08-06T09:03:18;20.40;99.90
32614;DHT22;19031;51.400;6.770;2023-08-06T09:05:45;20.40;99.90
32614;DHT22;19031;51.400;6.770;2023-08-06T09:08:18;20.30;99.90
32614;DHT22;19031;51.400;6.770;2023-08-06T09:10:44;20.40;99.90
32614;DHT22;19031;51.400;6.770;2023-08-06T09:13:13;20.30;99.90
32614;DHT22;19031;51.400;6.770;2023-08-06T09:15:39;20.10;99.90
32614;DHT22;19031;51.400;6.770;2023-08-06T09:18:14;20.00;99.90
32614;DHT22;19031;51.400;6.770;2023-08-06T09:20:39;19.80;99.90
32614;DHT22;19031;51.400;6.770;2023-08-06T09:26:55;19.50;99.90
32614;DHT22;19031;51.400;6.770;2023-08-06T09:29:45;19.30;99.90
32614;DHT22;19031;51.400;6.770;2023-08-06T09:32:14;19.30;99.90
32614;DHT22;19031;51.400;6.770;2023-08-06T09:34:57;19.30;99.90
32614;DHT22;19031;51.400;6.770;2023-08-06T09:37:35;19.10;99.90
32614;DHT22;19031;51.400;6.770;2023-08-06T09:40:31;19.20;99.90
32614;DHT22;19031;51.400;6.770;2023-08-06T09:42:59;19.10;99.90
32614;DHT22;19031;51.400;6.770;2023-08-06T09:45:37;19.10;99.90
32614;DHT22;19031;51.400;6.770;2023-08-06T09:48:08;19.00;99.90
32614;DHT22;19031;51.400;6.770;2023-08-06T09:50:35;19.20;99.90
32614;DHT22;19031;51.400;6.770;2023-08-06T09:53:05;19.30;99.90
32614;DHT22;19031;51.400;6.770;2023-08-06T09:55:32;19.50;99.90
32614;DHT22;19031;51.400;6.770;2023-08-06T09:58:01;19.60;99.90
32614;DHT22;19031;51.400;6.770;2023-08-06T10:00:36;19.70;99.90
32614;DHT22;19031;51.400;6.770;2023-08-06T10:03:02;19.80;99.90
32614;DHT22;19031;51.400;6.770;2023-08-06T10:05:29;20.40;99.90
32614;DHT22;19031;51.400;6.770;2023-08-06T10:07:57;20.70;99.90
32614;DHT22;19031;51.400;6.770;2023-08-06T10:10:25;21.30;99.90
32614;DHT22;19031;51.400;6.770;2023-08-06T10:12:55;21.50;99.90
32614;DHT22;19031;51.400;6.770;2023-08-06T10:15:25;21.80;99.90
32614;DHT22;19031;51.400;6.770;2023-08-06T10:17:54;21.60;99.90
32614;DHT22;19031;51.400;6.770;2023-08-06T10:20:21;21.50;99.90
32614;DHT22;19031;51.400;6.770;2023-08-06T10:23:04;21.50;99.90
32614;DHT22;19031;51.400;6.770;2023-08-06T10:25:32;21.20;99.90
32614;DHT22;19031;51.400;6.770;2023-08-06T10:27:59;21.00;99.90
32614;DHT22;19031;51.400;6.770;2023-08-06T10:30:32;21.10;99.90
32614;DHT22;19031;51.400;6.770;2023-08-06T10:33:00;20.90;99.90
32614;DHT22;19031;51.400;6.770;2023-08-06T10:35:46;20.80;99.90
32614;DHT22;19031;51.400;6.770;2023-08-06T10:38:24;20.40;99.90
32614;DHT22;19031;51.400;6.770;2023-08-06T10:45:53;19.00;99.90
32614;DHT22;19031;51.400;6.770;2023-08-06T10:48:35;18.40;99.90
32614;DHT22;19031;51.400;6.770;2023-08-06T10:51:02;18.30;99.90
32614;DHT22;19031;51.400;6.770;2023-08-06T10:53:29;17.90;99.90
32614;DHT22;19031;51.400;6.770;2023-08-06T10:55:54;17.70;99.90
32614;DHT22;19031;51.400;6.770;2023-08-06T10:58:20;17.20;99.90
32614;DHT22;19031;51.400;6.770;2023-08-06T11:00:46;16.90;99.90
32614;DHT22;19031;51.400;6.770;2023-08-06T11:03:11;16.90;99.90
32614;DHT22;19031;51.400;6.770;2023-08-06T11:05:37;16.50;99.90
32614;DHT22;19031;51.400;6.770;2023-08-06T11:08:03;16.30;99.90
32614;DHT22;19031;51.400;6.770;2023-08-06T11:10:29;16.10;99.90
32614;DHT22;19031;51.400;6.770;2023-08-06T11:12:55;16.00;99.90
32614;DHT22;19031;51.400;6.770;2023-08-06T11:15:25;15.90;99.90
32614;DHT22;19031;51.400;6.770;2023-08-06T11:17:51;15.90;99.90
32614;DHT22;19031;51.400;6.770;2023-08-06T11:20:17;15.90;99.90
32614;DHT22;19031;51.400;6.770;2023-08-06T11:22:45;15.80;99.90
32614;DHT22;19031;51.400;6.770;2023-08-06T11:25:11;15.90;99.90
32614;DHT22;19031;51.400;6.770;2023-08-06T11:27:37;15.90;99.90
32614;DHT22;19031;51.400;6.770;2023-08-06T11:30:03;15.90;99.90
32614;DHT22;19031;51.400;6.770;2023-08-06T11:32:29;15.80;99.90
32614;DHT22;19031;51.400;6.770;2023-08-06T11:34:55;15.80;99.90
32614;DHT22;19031;51.400;6.770;2023-08-06T11:37:21;15.80;99.90
32614;DHT22;19031;51.400;6.770;2023-08-06T11:39:49;15.70;99.90
32614;DHT22;19031;51.400;6.770;2023-08-06T11:42:15;15.70;99.90
32614;DHT22;19031;51.400;6.770;2023-08-06T11:44:41;15.60;99.90
32614;DHT22;19031;51.400;6.770;2023-08-06T11:47:15;15.60;99.90
32614;DHT22;19031;51.400;6.770;2023-08-06T11:49:48;15.60;99.90
32614;DHT22;19031;51.400;6.770;2023-08-06T11:52:25;15.70;99.90
32614;DHT22;19031;51.400;6.770;2023-08-06T11:55:07;15.50;99.90
32614;DHT22;19031;51.400;6.770;2023-08-06T11:57:36;15.40;99.90
32614;DHT22;19031;51.400;6.770;2023-08-06T12:00:07;15.40;99.90
32614;DHT22;19031;51.400;6.770;2023-08-06T12:02:34;15.40;99.90
32614;DHT22;19031;51.400;6.770;2023-08-06T12:05:11;15.40;99.90
32614;DHT22;19031;51.400;6.770;2023-08-06T12:07:38;15.50;99.90
32614;DHT22;19031;51.400;6.770;2023-08-06T12:10:05;15.40;99.90
32614;DHT22;19031;51.400;6.770;2023-08-06T12:12:30;15.50;99.90
32614;DHT22;19031;51.400;6.770;2023-08-06T12:14:56;15.50;99.90
32614;DHT22;19031;51.400;6.770;2023-08-06T12:17:23;15.40;99.90
32614;DHT22;19031;51.400;6.770;2023-08-06T12:19:49;15.50;99.90
32614;DHT22;19031;51.400;6.770;2023-08-06T12:22:16;15.50;99.90
32614;DHT22;19031;51.400;6.770;2023-08-06T12:24:46;15.50;99.90
32614;DHT22;19031;51.400;6.770;2023-08-06T12:27:12;15.50;99.90
32614;DHT22;19031;51.400;6.770;2023-08-06T12:29:42;15.60;99.90
32614;DHT22;19031;51.400;6.770;2023-08-06T12:32:11;15.70;99.90
32614;DHT22;19031;51.400;6.770;2023-08-06T12:34:38;15.70;99.90
32614;DHT22;19031;51.400;6.770;2023-08-06T12:37:04;15.80;99.90
32614;DHT22;19031;51.400;6.770;2023-08-06T12:39:30;15.90;99.90
32614;DHT22;19031;51.400;6.770;2023-08-06T12:41:56;15.90;99.90
32614;DHT22;19031;51.400;6.770;2023-08-06T12:44:23;16.10;99.90
32614;DHT22;19031;51.400;6.770;2023-08-06T12:46:50;16.10;99.90
32614;DHT22;19031;51.400;6.770;2023-08-06T12:49:17;16.10;99.90
32614;DHT22;19031;51.400;6.770;2023-08-06T12:51:43;16.10;99.90
32614;DHT22;19031;51.400;6.770;2023-08-06T12:54:09;16.20;99.90
32614;DHT22;19031;51.400;6.770;2023-08-06T12:56:34;16.20;99.90
32614;DHT22;19031;51.400;6.770;2023-08-06T12:59:00;16.20;99.90
32614;DHT22;19031;51.400;6.770;2023-08-06T13:01:26;16.20;99.90
32614;DHT22;19031;51.400;6.770;2023-08-06T13:03:51;16.20;99.90
32614;DHT22;19031;51.400;6.770;2023-08-06T13:06:17;16.20;99.90
32614;DHT22;19031;51.400;6.770;2023-08-06T13:08:42;16.00;99.90
32614;DHT22;19031;51.400;6.770;2023-08-06T13:11:08;16.10;99.90
32614;DHT22;19031;51.400;6.770;2023-08-06T13:13:34;16.10;99.90
32614;DHT22;19031;51.400;6.770;2023-08-06T13:15:59;16.10;99.90
32614;DHT22;19031;51.400;6.770;2023-08-06T13:18:25;16.10;99.90
32614;DHT22;19031;51.400;6.770;2023-08-06T13:20:53;16.20;99.90
32614;DHT22;19031;51.400;6.770;2023-08-06T13:23:19;16.10;99.90
32614;DHT22;19031;51.400;6.770;2023-08-06T13:25:45;16.10;99.90
32614;DHT22;19031;51.400;6.770;2023-08-06T13:28:11;16.10;99.90
32614;DHT22;19031;51.400;6.770;2023-08-06T13:30:36;16.10;99.90
32614;DHT22;19031;51.400;6.770;2023-08-06T13:33:07;16.20;99.90
32614;DHT22;19031;51.400;6.770;2023-08-06T13:35:33;16.30;99.90
32614;DHT22;19031;51.400;6.770;2023-08-06T13:37:59;16.20;99.90
32614;DHT22;19031;51.400;6.770;2023-08-06T13:40:24;16.10;99.90
32614;DHT22;19031;51.400;6.770;2023-08-06T13:42:50;16.10;99.90
32614;DHT22;19031;51.400;6.770;2023-08-06T13:45:16;16.00;99.90
32614;DHT22;19031;51.400;6.770;2023-08-06T13:47:41;16.20;99.90
32614;DHT22;19031;51.400;6.770;2023-08-06T13:50:08;16.20;99.90
32614;DHT22;19031;51.400;6.770;2023-08-06T13:52:33;16.20;99.90
32614;DHT22;19031;51.400;6.770;2023-08-06T13:55:01;16.20;99.90
32614;DHT22;19031;51.400;6.770;2023-08-06T13:57:27;16.10;99.90
32614;DHT22;19031;51.400;6.770;2023-08-06T13:59:53;16.00;99.90
32614;DHT22;19031;51.400;6.770;2023-08-06T14:02:18;16.00;99.90
32614;DHT22;19031;51.400;6.770;2023-08-06T14:04:44;16.10;99.90
32614;DHT22;19031;51.400;6.770;2023-08-06T14:07:09;16.30;99.90
32614;DHT22;19031;51.400;6.770;2023-08-06T14:09:35;16.50;99.90
32614;DHT22;19031;51.400;6.770;2023-08-06T14:12:01;16.60;99.90
32614;DHT22;19031;51.400;6.770;2023-08-06T14:14:27;16.70;99.90
32614;DHT22;19031;51.400;6.770;2023-08-06T14:16:53;16.80;99.90
32614;DHT22;19031;51.400;6.770;2023-08-06T14:19:19;16.80;99.90
32614;DHT22;19031;51.400;6.770;2023-08-06T14:21:45;16.80;99.90
32614;DHT22;19031;51.400;6.770;2023-08-06T14:24:11;17.00;99.90
32614;DHT22;19031;51.400;6.770;2023-08-06T14:26:36;17.00;99.90
32614;DHT22;19031;51.400;6.770;2023-08-06T14:29:02;17.00;99.90
32614;DHT22;19031;51.400;6.770;2023-08-06T14:31:28;16.90;99.90
32614;DHT22;19031;51.400;6.770;2023-08-06T14:33:54;17.10;99.90
32614;DHT22;19031;51.400;6.770;2023-08-06T14:36:19;17.40;99.90
32614;DHT22;19031;51.400;6.770;2023-08-06T14:38:45;17.60;99.90
32614;DHT22;19031;51.400;6.770;2023-08-06T14:41:11;17.60;99.90
32614;DHT22;19031;51.400;6.770;2023-08-06T14:43:37;17.70;99.90
32614;DHT22;19031;51.400;6.770;2023-08-06T14:46:02;17.80;99.90
32614;DHT22;19031;51.400;6.770;2023-08-06T14:48:29;17.80;99.90
32614;DHT22;19031;51.400;6.770;2023-08-06T14:50:55;17.70;99.90
32614;DHT22;19031;51.400;6.770;2023-08-06T14:53:21;17.80;99.90
32614;DHT22;19031;51.400;6.770;2023-08-06T14:55:47;17.80;99.90
32614;DHT22;19031;51.400;6.770;2023-08-06T14:58:12;17.90;99.90
32614;DHT22;19031;51.400;6.770;2023-08-06T15:00:38;17.90;99.90
32614;DHT22;19031;51.400;6.770;2023-08-06T15:03:04;17.80;99.90
32614;DHT22;19031;51.400;6.770;2023-08-06T15:05:29;17.60;99.90
32614;DHT22;19031;51.400;6.770;2023-08-06T15:07:55;17.80;99.90
32614;DHT22;19031;51.400;6.770;2023-08-06T15:10:21;17.80;99.90
32614;DHT22;19031;51.400;6.770;2023-08-06T15:12:47;18.20;99.90
32614;DHT22;19031;51.400;6.770;2023-08-06T15:15:13;18.30;99.90
32614;DHT22;19031;51.400;6.770;2023-08-06T15:17:39;18.30;99.90
32614;DHT22;19031;51.400;6.770;2023-08-06T15:20:05;18.50;99.90
32614;DHT22;19031;51.400;6.770;2023-08-06T15:22:31;18.50;99.90
32614;DHT22;19031;51.400;6.770;2023-08-06T15:24:59;18.50;99.90
32614;DHT22;19031;51.400;6.770;2023-08-06T15:27:25;18.30;99.90
32614;DHT22;19031;51.400;6.770;2023-08-06T15:29:50;18.20;99.90
32614;DHT22;19031;51.400;6.770;2023-08-06T15:32:16;18.30;99.90
32614;DHT22;19031;51.400;6.770;2023-08-06T15:34:41;18.40;99.90
32614;DHT22;19031;51.400;6.770;2023-08-06T15:37:07;18.20;99.90
32614;DHT22;19031;51.400;6.770;2023-08-06T15:39:33;18.10;99.90
32614;DHT22;19031;51.400;6.770;2023-08-06T15:41:59;18.20;99.90
32614;DHT22;19031;51.400;6.770;2023-08-06T15:44:25;18.30;99.90